Silver Ray — 3FTI3 — position and weather

sailwx.info

Track history (hours):
 
Tides and Currents Weather Stations Pressure Air Temp Water Temp Dewpoint Dewpoint Depression Visibility Wind Speed Wind Dir Waves Ship Positions

Silver Ray

Last reported at 2018-Feb-20 01:40 UTC. Time now 2018-Feb-20 13:55 UTC.
Position N 06°08' E 001°17'.

Length 179 m; draft 9.2 m.

Type: Cargo ship. MMSI: 355137000.

Date/timePositionNaut miles runAvg speedWind from/ knotsBaromVisibWave heightAir tempDewpointWater temp
2018-Feb-20 01:40N 06°08' E 001°17'0 0.5
2018-Feb-20 01:25N 06°08' E 001°17'  
2018-Feb-10 15:42N 07°48' W 014°17'314.6
2018-Feb-10 15:30N 07°50' W 014°19'714.8
2018-Feb-10 15:00N 07°55' W 014°24'714.5
2018-Feb-10 14:30N 08°00' W 014°29'714.4
2018-Feb-10 14:00N 08°05' W 014°34'814.4
2018-Feb-10 13:29N 08°11' W 014°39'714.4
2018-Feb-10 13:00N 08°16' W 014°44'714.5
2018-Feb-10 12:30N 08°21' W 014°49'814.4
2018-Feb-10 11:59N 08°27' W 014°54'714.6
2018-Feb-10 11:30N 08°32' W 014°59'714.9
2018-Feb-10 11:00N 08°37' W 015°04'814.7
2018-Feb-10 10:29N 08°43' W 015°10'714.8
2018-Feb-10 10:01N 08°48' W 015°15'714.7
2018-Feb-10 09:30N 08°53' W 015°20'814.8
2018-Feb-10 08:59N 08°59' W 015°25'814.6
2018-Feb-10 08:27N 09°04' W 015°31'714.8
2018-Feb-10 08:00N 09°09' W 015°36'915.0
2018-Feb-10 07:26N 09°15' W 015°41'615.0
2018-Feb-10 07:00N 09°20' W 015°46'1215.1
2018-Feb-10 06:12N 09°29' W 015°55'315.1
2018-Feb-10 06:00N 09°31' W 015°57'815.0
2018-Feb-10 05:30N 09°36' W 016°02'915.0
2018-Feb-10 04:53N 09°43' W 016°08'514.8
2018-Feb-10 04:30N 09°47' W 016°12'814.7
2018-Feb-10 03:58N 09°53' W 016°18'714.7
2018-Feb-10 03:31N 09°58' W 016°22'714.8
2018-Feb-10 03:00N 10°03' W 016°28'815.2
2018-Feb-10 02:30N 10°09' W 016°33'815.3
2018-Feb-10 02:00N 10°14' W 016°38'  
Track history (hours):
 
Tides and Currents Weather Stations Pressure Air Temp Water Temp Dewpoint Dewpoint Depression Visibility Wind Speed Wind Dir Waves Ship Positions

Silver Ray

Last reported at 2018-Feb-20 01:40 UTC. Time now 2018-Feb-20 13:55 UTC.
Position N 06°08' E 001°17'.

Length 179 m; draft 9.2 m.

Type: Cargo ship. MMSI: 355137000.

Date/timePositionNaut miles runAvg speedWind from/ knotsBaromVisibWave heightAir tempDewpointWater temp
2018-Feb-20 01:40N 06°08' E 001°17'0 0.5
2018-Feb-20 01:25N 06°08' E 001°17'  
2018-Feb-10 15:42N 07°48' W 014°17'314.6
2018-Feb-10 15:30N 07°50' W 014°19'714.8
2018-Feb-10 15:00N 07°55' W 014°24'714.5
2018-Feb-10 14:30N 08°00' W 014°29'714.4
2018-Feb-10 14:00N 08°05' W 014°34'814.4
2018-Feb-10 13:29N 08°11' W 014°39'714.4
2018-Feb-10 13:00N 08°16' W 014°44'714.5
2018-Feb-10 12:30N 08°21' W 014°49'814.4
2018-Feb-10 11:59N 08°27' W 014°54'714.6
2018-Feb-10 11:30N 08°32' W 014°59'714.9
2018-Feb-10 11:00N 08°37' W 015°04'814.7
2018-Feb-10 10:29N 08°43' W 015°10'714.8
2018-Feb-10 10:01N 08°48' W 015°15'714.7
2018-Feb-10 09:30N 08°53' W 015°20'814.8
2018-Feb-10 08:59N 08°59' W 015°25'814.6
2018-Feb-10 08:27N 09°04' W 015°31'714.8
2018-Feb-10 08:00N 09°09' W 015°36'915.0
2018-Feb-10 07:26N 09°15' W 015°41'615.0
2018-Feb-10 07:00N 09°20' W 015°46'1215.1
2018-Feb-10 06:12N 09°29' W 015°55'315.1
2018-Feb-10 06:00N 09°31' W 015°57'815.0
2018-Feb-10 05:30N 09°36' W 016°02'915.0
2018-Feb-10 04:53N 09°43' W 016°08'514.8
2018-Feb-10 04:30N 09°47' W 016°12'814.7
2018-Feb-10 03:58N 09°53' W 016°18'714.7
2018-Feb-10 03:31N 09°58' W 016°22'714.8
2018-Feb-10 03:00N 10°03' W 016°28'815.2
2018-Feb-10 02:30N 10°09' W 016°33'815.3
2018-Feb-10 02:00N 10°14' W 016°38'  

Dump ship's entire track history